createdAt,value
2022-10-08T06:50:29.366Z,11.70
2022-10-08T07:10:12.138Z,12.30
2022-10-08T07:15:06.667Z,12.50
2022-10-08T07:30:33.194Z,13.00
2022-10-08T07:35:26.855Z,13.20
2022-10-08T07:51:34.474Z,14.00
2022-10-08T07:56:28.311Z,14.20
2022-10-08T08:10:45.361Z,14.90
2022-10-08T08:15:38.946Z,15.10
2022-10-08T08:29:14.259Z,15.60
2022-10-08T08:34:09.621Z,15.80
2022-10-08T08:39:08.448Z,16.10
2022-10-08T08:44:09.708Z,16.30
2022-10-08T08:49:09.187Z,16.60
2022-10-08T08:54:02.888Z,16.80
2022-10-08T08:59:01.942Z,17.10
2022-10-08T09:04:00.392Z,17.30
2022-10-08T09:09:00.448Z,17.60
2022-10-08T09:13:59.801Z,17.90
2022-10-08T09:18:54.313Z,18.20
2022-10-08T09:23:48.130Z,18.60
2022-10-08T09:28:46.639Z,18.80
2022-10-08T09:33:41.391Z,18.70
2022-10-08T09:38:38.276Z,18.70
2022-10-08T09:43:33.651Z,18.60
2022-10-08T09:48:30.053Z,19.00
2022-10-08T09:53:25.451Z,19.30
2022-10-08T09:58:20.914Z,19.40
2022-10-08T10:03:19.314Z,19.60
2022-10-08T10:08:56.258Z,20.10
2022-10-08T10:13:51.886Z,20.40
2022-10-08T10:18:59.286Z,20.30
2022-10-08T10:24:03.911Z,20.50
2022-10-08T10:29:00.474Z,21.10
2022-10-08T10:33:58.681Z,21.60
2022-10-08T10:39:04.009Z,21.70
2022-10-08T10:44:01.947Z,21.90
2022-10-08T10:48:56.667Z,22.10
2022-10-08T10:54:03.017Z,22.60
2022-10-08T10:59:16.619Z,23.10
2022-10-08T11:04:19.328Z,23.50
2022-10-08T11:09:27.030Z,23.70
2022-10-08T11:14:37.686Z,23.90
2022-10-08T11:19:40.689Z,24.20
2022-10-08T11:24:59.649Z,24.30
2022-10-08T11:30:01.823Z,24.70
2022-10-08T11:35:01.669Z,25.20
2022-10-08T11:40:05.026Z,25.40
2022-10-08T11:45:31.106Z,25.60
2022-10-08T11:50:30.756Z,25.80
2022-10-08T11:55:29.309Z,25.70
2022-10-08T12:00:36.123Z,25.80
2022-10-08T12:05:46.648Z,25.50
2022-10-08T12:10:44.680Z,25.80
2022-10-08T12:15:56.161Z,26.00
2022-10-08T12:21:29.324Z,26.10
2022-10-08T12:26:24.698Z,26.40
2022-10-08T12:31:30.729Z,26.50
2022-10-08T12:36:33.125Z,26.60
2022-10-08T12:41:31.358Z,26.90
2022-10-08T12:46:35.325Z,27.00
2022-10-08T12:51:36.494Z,26.90
2022-10-08T12:56:32.876Z,26.80
2022-10-08T13:01:27.871Z,27.00
2022-10-08T13:06:33.676Z,27.40
2022-10-08T13:11:28.291Z,27.00
2022-10-08T13:16:26.293Z,26.80
2022-10-08T13:21:34.456Z,27.30
2022-10-08T13:26:42.315Z,28.40
2022-10-08T13:31:37.974Z,29.20
2022-10-08T13:36:35.780Z,28.90
2022-10-08T13:41:31.358Z,28.70
2022-10-08T13:46:25.132Z,28.70
2022-10-08T13:51:20.410Z,27.80
2022-10-08T13:56:14.415Z,27.10
2022-10-08T14:01:08.394Z,27.50
2022-10-08T14:06:02.134Z,26.50
2022-10-08T14:10:59.022Z,25.80
2022-10-08T14:15:53.034Z,25.30
2022-10-08T14:20:46.879Z,25.40
2022-10-08T14:25:40.634Z,25.40
2022-10-08T14:30:36.389Z,24.90
2022-10-08T14:35:30.239Z,24.80
2022-10-08T14:40:25.009Z,24.70
2022-10-08T14:45:19.034Z,25.10
2022-10-08T14:50:14.585Z,24.20
2022-10-08T14:55:09.417Z,23.60
2022-10-08T15:00:03.369Z,23.50
2022-10-08T15:04:58.627Z,23.90
2022-10-08T15:09:54.342Z,23.90
2022-10-08T15:14:48.489Z,24.50
2022-10-08T15:19:42.685Z,25.50
2022-10-08T15:24:36.723Z,24.30
2022-10-08T15:29:32.831Z,23.20
2022-10-08T15:34:26.876Z,22.70
2022-10-08T15:39:23.087Z,22.30
2022-10-08T15:44:20.230Z,22.10
2022-10-08T15:49:16.301Z,21.80
2022-10-08T15:54:10.478Z,21.60
2022-10-08T15:59:06.225Z,21.20
2022-10-08T16:04:01.051Z,20.90
2022-10-08T16:08:58.729Z,20.70
2022-10-08T16:13:54.937Z,20.40
2022-10-08T16:18:53.058Z,20.20
2022-10-08T16:23:47.038Z,20.10
2022-10-08T16:28:45.404Z,19.90
2022-10-08T16:33:39.358Z,19.80
2022-10-08T16:38:34.342Z,19.60
2022-10-08T16:43:30.674Z,19.40
2022-10-08T16:48:26.658Z,19.10
2022-10-08T16:53:20.532Z,18.80
2022-10-08T16:58:14.322Z,18.60
2022-10-08T17:03:08.185Z,18.50
2022-10-08T17:08:03.799Z,18.40
2022-10-08T17:12:57.494Z,18.30
2022-10-08T17:17:55.405Z,18.20
2022-10-08T17:22:49.747Z,18.00
2022-10-08T17:27:47.409Z,17.80
2022-10-08T17:32:41.006Z,17.70
2022-10-08T17:37:34.839Z,17.60
2022-10-08T17:42:28.438Z,17.50
2022-10-08T17:47:28.957Z,17.30
2022-10-08T17:52:23.083Z,17.20
2022-10-08T17:57:16.774Z,17.10
2022-10-08T18:02:11.018Z,17.10
2022-10-08T18:07:06.318Z,17.00
2022-10-08T18:11:59.869Z,16.90
2022-10-08T18:16:56.874Z,16.90
2022-10-08T18:21:50.704Z,16.90
2022-10-08T18:26:46.871Z,16.80
2022-10-08T18:31:43.244Z,16.70
2022-10-08T18:36:38.446Z,16.60
2022-10-08T18:41:33.433Z,16.60
2022-10-08T18:46:29.830Z,16.40
2022-10-08T18:51:25.910Z,16.40
2022-10-08T18:56:21.702Z,16.20
2022-10-08T19:01:21.061Z,16.10
2022-10-08T19:06:16.456Z,15.90
2022-10-08T19:11:12.465Z,15.70
2022-10-08T19:16:07.027Z,15.70
2022-10-08T19:21:08.435Z,15.60
2022-10-08T19:26:04.920Z,15.50
2022-10-08T19:30:58.916Z,15.40
2022-10-08T19:35:52.671Z,15.20
2022-10-08T19:40:46.380Z,15.00
2022-10-08T19:45:41.676Z,15.00
2022-10-08T19:50:37.446Z,14.90
2022-10-08T19:55:31.386Z,15.00
2022-10-08T20:00:25.160Z,14.90
2022-10-08T20:05:20.592Z,14.90
